Time;durP1;ratioP1;P1;durP2;ratioP2;P2;SDS_P1;SDS_P2;PMS_P1;PMS_P2;Temp;Humidity;BMP_temperature;BMP_pressure;BME280_temperature;BME280_humidity;BME280_pressure;Samples;Min_cycle;Max_cycle;Signal;HPM_P1;HPM_P2
2022/11/27 05:01:55;;;;;;;154.77;39.90;;;1.90;99.90;;;;;;5332679;23;20496;-62
2022/11/27 05:04:22;;;;;;;78.63;34.90;;;1.90;99.90;;;;;;4994860;28;20438;-62
2022/11/27 05:06:49;;;;;;;88.10;34.33;;;2.00;99.90;;;;;;4994774;28;20454;-65
2022/11/27 05:09:17;;;;;;;156.80;34.80;;;2.00;99.90;;;;;;4994627;28;20454;-62
2022/11/27 05:11:43;;;;;;;88.17;31.80;;;2.00;99.90;;;;;;4994702;28;20894;-63
2022/11/27 05:14:16;;;;;;;37.40;27.07;;;2.00;99.90;;;;;;4994777;28;20510;-62
2022/11/27 05:16:44;;;;;;;126.57;33.27;;;2.00;99.90;;;;;;4994814;28;20473;-63
2022/11/27 05:19:14;;;;;;;105.40;31.50;;;2.00;99.90;;;;;;4995048;28;20512;-63
2022/11/27 05:21:41;;;;;;;229.27;36.37;;;2.00;99.90;;;;;;4994757;28;20472;-64
2022/11/27 05:24:08;;;;;;;224.40;35.53;;;2.00;99.90;;;;;;4994801;28;20949;-64
2022/11/27 05:26:35;;;;;;;94.53;32.40;;;1.90;99.90;;;;;;4995327;28;20545;-64
2022/11/27 05:29:02;;;;;;;85.10;29.00;;;1.80;99.90;;;;;;4994628;28;20965;-64
2022/11/27 05:31:29;;;;;;;83.83;27.27;;;1.80;99.90;;;;;;4994382;28;20532;-64
2022/11/27 05:33:56;;;;;;;165.90;32.57;;;1.80;99.90;;;;;;4994709;28;20458;-64
2022/11/27 05:36:24;;;;;;;35.53;24.47;;;1.80;99.90;;;;;;4994368;28;20454;-63
2022/11/27 05:38:50;;;;;;;163.90;35.27;;;1.80;99.90;;;;;;4994300;28;20458;-63
2022/11/27 05:41:17;;;;;;;35.90;25.43;;;1.80;99.90;;;;;;4994299;28;20931;-63
2022/11/27 05:43:44;;;;;;;97.93;31.47;;;1.70;99.90;;;;;;4994401;28;20453;-63
2022/11/27 05:46:14;;;;;;;100.30;29.00;;;1.70;99.90;;;;;;4994606;28;20458;-63
2022/11/27 05:48:41;;;;;;;150.47;30.73;;;1.70;99.90;;;;;;4994254;28;20862;-63
2022/11/27 05:51:08;;;;;;;96.50;29.20;;;1.70;99.90;;;;;;4994019;28;20486;-63
2022/11/27 05:53:36;;;;;;;58.90;25.33;;;1.60;99.90;;;;;;4993777;28;21019;-63
2022/11/27 05:56:03;;;;;;;76.77;28.70;;;1.60;99.90;;;;;;4994236;28;20541;-63
2022/11/27 05:58:30;;;;;;;51.17;24.40;;;1.60;99.90;;;;;;4994108;28;20454;-63
2022/11/27 06:00:57;;;;;;;31.07;25.00;;;1.60;99.90;;;;;;4993944;28;20547;-63
2022/11/27 06:03:24;;;;;;;28.77;23.70;;;1.60;99.90;;;;;;4994516;28;20454;-62
2022/11/27 06:05:50;;;;;;;27.50;23.80;;;1.60;99.90;;;;;;4994331;28;20512;-62
2022/11/27 06:08:18;;;;;;;39.03;26.23;;;1.60;99.90;;;;;;4993812;28;20454;-63
2022/11/27 06:10:46;;;;;;;27.20;23.40;;;1.60;99.90;;;;;;4993934;28;20545;-62
2022/11/27 06:13:13;;;;;;;79.13;31.23;;;1.60;99.90;;;;;;4993866;28;20825;-63
2022/11/27 06:15:40;;;;;;;90.70;30.23;;;1.60;99.90;;;;;;4994671;28;20462;-63
2022/11/27 06:18:08;;;;;;;31.77;24.30;;;1.50;99.90;;;;;;4994530;28;20497;-64
2022/11/27 06:20:34;;;;;;;29.97;23.60;;;1.50;99.90;;;;;;4994642;28;20474;-63
2022/11/27 06:23:01;;;;;;;56.00;24.70;;;1.50;99.90;;;;;;4993943;28;20461;-63
2022/11/27 06:25:27;;;;;;;46.80;24.17;;;1.60;99.90;;;;;;4993904;28;20463;-63
2022/11/27 06:27:55;;;;;;;48.43;23.77;;;1.50;99.90;;;;;;4994138;28;20454;-63
2022/11/27 06:30:22;;;;;;;24.73;22.13;;;1.50;99.90;;;;;;4993756;28;20450;-63
2022/11/27 06:32:49;;;;;;;57.13;24.20;;;1.50;99.90;;;;;;4993911;28;20865;-63
2022/11/27 06:35:15;;;;;;;42.00;21.70;;;1.50;99.90;;;;;;4993487;28;20461;-63
2022/11/27 06:37:42;;;;;;;118.97;25.73;;;1.50;99.90;;;;;;4995963;28;20453;-64
2022/11/27 06:40:09;;;;;;;54.83;23.40;;;1.50;99.90;;;;;;4997701;28;20514;-63
2022/11/27 06:42:36;;;;;;;31.60;22.80;;;1.50;99.90;;;;;;4997684;28;20484;-62
2022/11/27 06:45:05;;;;;;;48.13;23.73;;;1.40;99.90;;;;;;4997385;28;20453;-62
2022/11/27 06:47:32;;;;;;;50.10;25.10;;;1.40;99.90;;;;;;4997103;28;20457;-63
2022/11/27 06:49:58;;;;;;;48.23;26.00;;;1.30;99.90;;;;;;4997290;28;20458;-63
2022/11/27 06:52:25;;;;;;;26.40;22.30;;;1.20;99.90;;;;;;4997727;28;20533;-63
2022/11/27 06:54:52;;;;;;;40.20;25.27;;;1.20;99.90;;;;;;4997276;28;20461;-63
2022/11/27 06:57:18;;;;;;;31.03;25.37;;;1.20;99.90;;;;;;4997622;28;20507;-64
2022/11/27 06:59:45;;;;;;;34.03;26.93;;;1.20;99.90;;;;;;4997561;28;20458;-63
2022/11/27 07:02:14;;;;;;;34.73;26.60;;;1.20;99.90;;;;;;4997068;28;20481;-64
2022/11/27 07:04:41;;;;;;;32.43;27.40;;;1.20;99.90;;;;;;4997225;28;20504;-64
2022/11/27 07:07:08;;;;;;;31.70;27.97;;;1.20;99.90;;;;;;4997169;28;20510;-63
2022/11/27 07:09:34;;;;;;;30.13;25.33;;;1.30;99.90;;;;;;4997737;28;20462;-63
2022/11/27 07:12:01;;;;;;;30.10;25.67;;;1.30;99.90;;;;;;4996722;28;20537;-63
2022/11/27 07:14:28;;;;;;;28.23;25.23;;;1.40;99.90;;;;;;4996858;28;20457;-63
2022/11/27 07:16:54;;;;;;;28.50;25.40;;;1.40;99.90;;;;;;4996741;28;20458;-64
2022/11/27 07:19:22;;;;;;;29.73;23.60;;;1.40;99.90;;;;;;4996807;28;20504;-63
2022/11/27 07:21:49;;;;;;;27.00;24.10;;;1.50;99.90;;;;;;4996335;28;21046;-63
2022/11/27 07:24:15;;;;;;;25.50;22.43;;;1.70;99.90;;;;;;4996676;28;20512;-63
2022/11/27 07:26:42;;;;;;;21.93;19.63;;;2.00;99.90;;;;;;4997049;28;20487;-64
2022/11/27 07:29:09;;;;;;;21.93;19.90;;;2.50;99.90;;;;;;4996109;28;20960;-64
2022/11/27 07:31:35;;;;;;;18.73;16.97;;;2.90;99.90;;;;;;4996378;28;20478;-65
2022/11/27 07:34:02;;;;;;;16.00;14.60;;;3.50;99.90;;;;;;4996454;28;20458;-64
2022/11/27 07:36:31;;;;;;;16.17;14.47;;;3.90;99.90;;;;;;4996264;28;20508;-64
2022/11/27 07:38:58;;;;;;;15.10;13.47;;;4.40;99.90;;;;;;4995980;28;20964;-64
2022/11/27 07:41:24;;;;;;;13.43;12.30;;;4.90;99.90;;;;;;4996098;28;20879;-64
2022/11/27 07:43:51;;;;;;;14.90;13.37;;;5.20;99.90;;;;;;4996126;28;20450;-66
2022/11/27 07:46:20;;;;;;;12.03;11.00;;;5.50;99.90;;;;;;4996159;28;20457;-66
2022/11/27 07:48:48;;;;;;;13.17;11.93;;;5.80;99.90;;;;;;4995089;28;20850;-66
2022/11/27 07:51:17;;;;;;;12.60;11.60;;;5.90;99.90;;;;;;4996086;28;20482;-66
2022/11/27 07:53:45;;;;;;;13.67;12.47;;;5.70;99.90;;;;;;4995634;28;20493;-69
2022/11/27 07:56:13;;;;;;;14.23;13.03;;;5.60;99.90;;;;;;4996421;28;20454;-66
2022/11/27 07:58:40;;;;;;;12.77;11.67;;;5.30;99.90;;;;;;4995849;28;20457;-67
2022/11/27 08:01:08;;;;;;;13.37;12.30;;;5.20;99.90;;;;;;4995642;28;21030;-65
2022/11/27 08:03:35;;;;;;;16.07;13.47;;;5.30;99.90;;;;;;4995834;28;20516;-66
2022/11/27 08:06:02;;;;;;;11.33;10.33;;;6.00;99.90;;;;;;4995792;28;20469;-66
2022/11/27 08:08:28;;;;;;;11.20;10.20;;;6.80;99.90;;;;;;4995833;28;20508;-67
2022/11/27 08:10:56;;;;;;;10.53;9.73;;;7.30;99.90;;;;;;4995604;28;20535;-66
2022/11/27 08:13:23;;;;;;;11.83;10.90;;;7.50;99.90;;;;;;4995599;28;20454;-66
2022/11/27 08:15:49;;;;;;;10.70;9.80;;;7.80;99.90;;;;;;4995208;28;20868;-65
2022/11/27 08:18:16;;;;;;;10.40;9.60;;;8.40;99.90;;;;;;4995096;28;20952;-65
2022/11/27 08:20:43;;;;;;;10.37;9.37;;;9.10;99.90;;;;;;4995401;28;20473;-65
2022/11/27 08:23:09;;;;;;;10.70;9.03;;;9.30;99.90;;;;;;4995355;28;20863;-66
2022/11/27 08:25:37;;;;;;;10.50;9.60;;;9.80;99.90;;;;;;4995075;28;20453;-67
2022/11/27 08:28:05;;;;;;;9.10;8.40;;;10.10;99.90;;;;;;4995512;28;20449;-66
2022/11/27 08:30:32;;;;;;;9.37;8.67;;;10.60;99.90;;;;;;4995546;28;20883;-66
2022/11/27 08:32:59;;;;;;;9.67;8.93;;;11.10;99.90;;;;;;4995749;28;20536;-65
2022/11/27 08:35:25;;;;;;;10.07;9.27;;;11.70;99.90;;;;;;4996017;28;20438;-66
2022/11/27 08:37:52;;;;;;;10.70;9.77;;;12.20;99.90;;;;;;4995323;28;20460;-66
2022/11/27 08:40:19;;;;;;;9.70;8.90;;;12.90;99.90;;;;;;4994910;28;20838;-66
2022/11/27 08:42:45;;;;;;;9.60;8.83;;;13.40;99.90;;;;;;4995280;28;20461;-66
2022/11/27 08:45:13;;;;;;;9.53;8.63;;;14.20;99.90;;;;;;4994859;28;20940;-65
2022/11/27 08:47:42;;;;;;;9.50;8.80;;;14.60;99.70;;;;;;4995099;28;20464;-66
2022/11/27 08:50:09;;;;;;;9.60;8.80;;;15.10;98.00;;;;;;4995151;28;20536;-66
2022/11/27 08:52:36;;;;;;;9.77;8.97;;;15.50;96.30;;;;;;4994772;28;21050;-66
2022/11/27 08:55:03;;;;;;;9.30;8.57;;;15.90;94.10;;;;;;4995060;28;20457;-66
2022/11/27 08:57:30;;;;;;;8.90;8.20;;;16.30;94.10;;;;;;4995123;28;20460;-66
2022/11/27 08:59:56;;;;;;;8.17;7.57;;;16.40;91.00;;;;;;4994627;28;20458;-66
2022/11/27 09:02:25;;;;;;;8.77;8.03;;;15.50;92.30;;;;;;4994641;28;20477;-65
2022/11/27 09:04:52;;;;;;;8.27;7.67;;;14.40;93.10;;;;;;4994871;28;20462;-64
2022/11/27 09:07:19;;;;;;;9.90;9.10;;;13.20;94.70;;;;;;4994859;28;20454;-64
2022/11/27 09:09:46;;;;;;;8.70;7.90;;;11.60;96.80;;;;;;4994876;28;20461;-64
2022/11/27 09:12:12;;;;;;;8.70;8.07;;;10.60;99.90;;;;;;4994595;28;20847;-64
2022/11/27 09:14:39;;;;;;;7.73;7.23;;;9.80;99.90;;;;;;4994671;28;20484;-64
2022/11/27 09:17:06;;;;;;;8.90;8.20;;;9.10;99.90;;;;;;4994528;28;20458;-64
2022/11/27 09:19:34;;;;;;;8.20;7.60;;;8.70;99.90;;;;;;4994642;28;20462;-65
2022/11/27 09:22:00;;;;;;;12.70;7.90;;;8.30;99.90;;;;;;4994398;28;20469;-64
2022/11/27 09:24:27;;;;;;;7.90;7.30;;;8.20;99.90;;;;;;4994471;28;20457;-64
2022/11/27 09:26:54;;;;;;;7.60;6.83;;;8.00;99.90;;;;;;4994509;28;20461;-64
2022/11/27 09:29:21;;;;;;;13.73;8.33;;;7.80;99.90;;;;;;4994589;28;20457;-64
2022/11/27 09:31:47;;;;;;;21.30;11.70;;;7.70;99.90;;;;;;4994328;28;20477;-64
2022/11/27 09:34:14;;;;;;;13.00;10.43;;;7.70;99.90;;;;;;4994495;28;20453;-64
2022/11/27 09:36:42;;;;;;;9.97;8.90;;;7.70;99.90;;;;;;4994502;28;20485;-64
2022/11/27 09:39:09;;;;;;;8.63;7.80;;;7.70;99.90;;;;;;4994589;28;20867;-64
2022/11/27 09:41:44;;;;;;;11.73;8.00;;;7.70;99.90;;;;;;4994497;28;20481;-65
2022/11/27 09:44:27;;;;;;;8.63;8.00;;;7.60;99.90;;;;;;4994570;28;20852;-65
2022/11/27 09:46:55;;;;;;;8.83;8.17;;;7.50;99.90;;;;;;4995119;28;20460;-64
2022/11/27 09:49:25;;;;;;;10.53;9.73;;;7.40;99.90;;;;;;4994448;28;20512;-64
2022/11/27 09:51:59;;;;;;;9.03;8.23;;;7.40;99.90;;;;;;4994205;28;20862;-65
2022/11/27 09:54:31;;;;;;;8.17;7.57;;;7.50;99.90;;;;;;4994397;28;20448;-65
2022/11/27 09:56:59;;;;;;;8.17;7.67;;;7.60;99.90;;;;;;4994481;28;20505;-65
2022/11/27 09:59:38;;;;;;;9.20;8.40;;;7.70;99.90;;;;;;4994165;28;20458;-66
2022/11/27 10:02:16;;;;;;;8.57;7.87;;;7.80;99.90;;;;;;4993919;28;20588;-67
2022/11/27 10:04:42;;;;;;;8.43;7.73;;;7.80;99.90;;;;;;4994746;28;20434;-66
2022/11/27 10:07:21;;;;;;;8.53;7.93;;;7.80;99.90;;;;;;4993987;28;20457;-66
2022/11/27 10:10:00;;;;;;;12.30;10.70;;;7.80;99.90;;;;;;4994036;28;20438;-66
2022/11/27 10:12:35;;;;;;;9.30;8.40;;;7.60;99.90;;;;;;4995337;28;20535;-66
2022/11/27 10:15:07;;;;;;;9.50;8.70;;;7.40;99.90;;;;;;4997609;28;20437;-66
2022/11/27 10:17:39;;;;;;;9.73;8.77;;;7.40;99.90;;;;;;4998087;28;20446;-66
2022/11/27 10:20:18;;;;;;;9.57;8.77;;;7.40;99.90;;;;;;4997892;28;20533;-66
2022/11/27 10:22:54;;;;;;;9.57;8.70;;;7.50;99.90;;;;;;4997852;28;20826;-69
2022/11/27 10:25:25;;;;;;;8.57;7.97;;;7.60;99.90;;;;;;4997384;28;20909;-69
2022/11/27 10:28:02;;;;;;;8.10;7.43;;;7.80;99.90;;;;;;4997606;28;20901;-69
2022/11/27 10:30:32;;;;;;;8.80;8.10;;;8.20;99.90;;;;;;4997683;28;20441;-69
2022/11/27 10:33:00;;;;;;;8.40;7.60;;;9.10;99.90;;;;;;4997628;28;20480;-69
2022/11/27 10:35:30;;;;;;;7.70;7.00;;;9.80;99.90;;;;;;4997322;28;20469;-69
2022/11/27 10:38:02;;;;;;;7.33;6.73;;;10.60;99.90;;;;;;4997632;28;20453;-69
2022/11/27 10:40:34;;;;;;;7.40;6.90;;;11.30;99.90;;;;;;4997409;28;20441;-70
2022/11/27 10:43:07;;;;;;;8.10;7.50;;;11.80;99.90;;;;;;4997357;28;20941;-69
2022/11/27 10:45:42;;;;;;;7.50;6.90;;;12.10;99.90;;;;;;4997157;28;20975;-69
2022/11/27 10:48:09;;;;;;;7.30;6.70;;;12.00;99.90;;;;;;4997216;28;20441;-69
2022/11/27 10:50:36;;;;;;;7.47;6.87;;;11.80;99.90;;;;;;4997403;28;20481;-69
2022/11/27 10:53:07;;;;;;;6.70;6.20;;;11.60;99.90;;;;;;4997370;28;20484;-69
2022/11/27 10:55:52;;;;;;;6.90;6.40;;;11.20;99.90;;;;;;4997475;28;20473;-69
2022/11/27 10:58:26;;;;;;;7.17;6.67;;;10.80;99.90;;;;;;4997406;28;20452;-69
2022/11/27 11:01:00;;;;;;;7.60;6.90;;;10.30;99.90;;;;;;4997077;28;20547;-69
2022/11/27 11:03:27;;;;;;;7.13;6.47;;;10.10;99.90;;;;;;4996788;28;20789;-68
2022/11/27 11:06:00;;;;;;;7.17;6.60;;;9.90;99.90;;;;;;4997169;28;20465;-68
2022/11/27 11:08:29;;;;;;;7.80;7.10;;;9.80;99.90;;;;;;4997059;28;20549;-68
2022/11/27 11:10:59;;;;;;;6.57;5.97;;;9.60;99.90;;;;;;4996926;28;20473;-69
2022/11/27 11:13:27;;;;;;;6.50;6.00;;;9.60;99.90;;;;;;4996895;28;20466;-67
2022/11/27 11:15:56;;;;;;;6.27;5.87;;;9.70;99.90;;;;;;4996835;28;20516;-64
2022/11/27 11:18:26;;;;;;;6.07;5.63;;;9.70;99.90;;;;;;4996892;28;20484;-65
2022/11/27 11:20:55;;;;;;;6.80;6.20;;;9.60;99.90;;;;;;4996757;28;20478;-65
2022/11/27 11:23:30;;;;;;;6.70;6.17;;;9.50;99.90;;;;;;4996356;28;20956;-66
2022/11/27 11:26:01;;;;;;;7.13;6.50;;;9.30;99.90;;;;;;4996732;28;20448;-66
2022/11/27 11:28:29;;;;;;;7.33;6.83;;;9.30;99.90;;;;;;4996489;28;20461;-65
2022/11/27 11:31:00;;;;;;;7.50;6.90;;;9.40;99.90;;;;;;4996610;28;20528;-65
2022/11/27 11:33:28;;;;;;;6.90;6.30;;;9.50;99.90;;;;;;4996429;28;20481;-66
2022/11/27 11:35:59;;;;;;;7.17;6.60;;;9.50;99.90;;;;;;4997331;28;20516;-65
2022/11/27 11:38:32;;;;;;;6.10;5.60;;;9.50;99.90;;;;;;4996714;28;20497;-65
2022/11/27 11:41:02;;;;;;;7.10;6.40;;;9.40;99.90;;;;;;4998256;28;20870;-66
2022/11/27 11:43:31;;;;;;;7.33;6.70;;;9.40;99.90;;;;;;4999438;28;20454;-65
2022/11/27 11:46:07;;;;;;;7.90;7.10;;;9.50;99.90;;;;;;4999834;28;20445;-66
2022/11/27 11:48:34;;;;;;;7.23;6.67;;;9.60;99.90;;;;;;4999654;28;20442;-66
2022/11/27 11:51:07;;;;;;;6.97;6.37;;;9.70;99.90;;;;;;4997608;28;20473;-67
2022/11/27 11:53:37;;;;;;;6.50;6.00;;;9.80;99.90;;;;;;4996704;28;20462;-65
2022/11/27 11:56:17;;;;;;;5.90;5.50;;;9.90;99.90;;;;;;4995851;28;20994;-65
2022/11/27 11:58:57;;;;;;;7.13;6.57;;;10.00;99.90;;;;;;4995660;28;20984;-64
2022/11/27 12:01:52;;;;;;;6.70;6.20;;;10.10;99.90;;;;;;4995864;28;20507;-64
2022/11/27 12:04:40;;;;;;;7.17;6.57;;;10.10;99.90;;;;;;4995866;28;20438;-64
2022/11/27 12:07:14;;;;;;;5.93;5.40;;;10.10;99.90;;;;;;4995966;28;20496;-65
2022/11/27 12:09:50;;;;;;;6.90;6.40;;;10.10;99.90;;;;;;4995755;28;20442;-65
2022/11/27 12:12:38;;;;;;;6.30;5.70;;;10.10;99.90;;;;;;4995748;28;20477;-65
2022/11/27 12:15:14;;;;;;;6.20;5.60;;;10.10;99.90;;;;;;4996371;28;20442;-65
2022/11/27 12:17:55;;;;;;;6.27;5.77;;;10.10;99.90;;;;;;4995562;28;20979;-65
2022/11/27 12:20:26;;;;;;;5.77;5.27;;;10.20;99.90;;;;;;4995795;28;20493;-64
2022/11/27 12:23:25;;;;;;;6.20;5.80;;;10.30;99.90;;;;;;4995685;28;20519;-64
2022/11/27 12:26:03;;;;;;;7.17;6.57;;;10.40;99.90;;;;;;4995475;28;20449;-65
2022/11/27 12:28:53;;;;;;;7.17;6.53;;;10.50;99.90;;;;;;4995371;28;20916;-64
2022/11/27 12:31:32;;;;;;;6.30;5.80;;;10.50;99.90;;;;;;4995055;28;20960;-64
2022/11/27 12:34:04;;;;;;;7.70;7.10;;;10.60;99.90;;;;;;4995248;28;20465;-63
2022/11/27 12:36:48;;;;;;;8.97;6.53;;;10.50;99.90;;;;;;4995072;28;20442;-64
2022/11/27 12:39:24;;;;;;;6.93;6.33;;;10.50;99.90;;;;;;4995437;28;20806;-63
2022/11/27 12:42:01;;;;;;;7.53;6.47;;;10.40;99.90;;;;;;4995184;28;20473;-63
2022/11/27 12:44:46;;;;;;;6.40;5.90;;;10.50;99.90;;;;;;4994976;28;20496;-63
2022/11/27 12:47:18;;;;;;;6.93;6.33;;;10.50;99.90;;;;;;4995089;28;20496;-63
2022/11/27 12:49:48;;;;;;;7.40;6.70;;;10.60;99.90;;;;;;4996124;28;20446;-63
2022/11/27 12:52:18;;;;;;;8.23;7.40;;;10.50;99.90;;;;;;4995393;28;20470;-64
2022/11/27 12:54:51;;;;;;;8.47;7.67;;;10.50;99.90;;;;;;4995094;28;20446;-64
2022/11/27 12:57:23;;;;;;;7.90;7.10;;;10.50;99.90;;;;;;4995085;28;20453;-63
2022/11/27 12:59:57;;;;;;;9.57;8.77;;;10.40;99.90;;;;;;4995056;28;20508;-64
2022/11/27 13:02:33;;;;;;;9.40;8.60;;;10.40;99.90;;;;;;4994500;28;20516;-64
2022/11/27 13:05:04;;;;;;;9.87;9.07;;;10.40;99.90;;;;;;4994802;28;20442;-63
2022/11/27 13:07:38;;;;;;;8.10;7.30;;;10.30;99.90;;;;;;4994851;28;20496;-62
2022/11/27 13:10:21;;;;;;;7.90;7.30;;;10.20;99.90;;;;;;4994970;28;20880;-62
2022/11/27 13:12:54;;;;;;;14.57;12.57;;;10.10;99.90;;;;;;4994695;28;20473;-62
2022/11/27 13:15:26;;;;;;;8.30;7.50;;;10.10;99.90;;;;;;4994809;28;20506;-62
2022/11/27 13:18:00;;;;;;;8.00;7.27;;;10.00;99.90;;;;;;4994880;28;20445;-62
2022/11/27 13:20:34;;;;;;;8.40;7.20;;;10.00;99.90;;;;;;4994854;28;20801;-63
2022/11/27 13:23:00;;;;;;;7.80;7.17;;;9.90;99.90;;;;;;4994833;28;20516;-63
2022/11/27 13:25:30;;;;;;;9.47;8.60;;;10.00;99.90;;;;;;4994660;28;20480;-63
2022/11/27 13:28:00;;;;;;;8.07;7.47;;;10.10;99.90;;;;;;4994787;28;20466;-62
2022/11/27 13:30:32;;;;;;;7.93;7.20;;;10.10;99.90;;;;;;4994570;28;20457;-63
2022/11/27 13:33:01;;;;;;;6.83;6.33;;;10.10;99.90;;;;;;4994570;28;20470;-62
2022/11/27 13:35:30;;;;;;;7.50;6.83;;;10.10;99.90;;;;;;4994677;28;20468;-62
2022/11/27 13:38:05;;;;;;;7.87;7.17;;;10.10;99.90;;;;;;4994935;28;20454;-62
2022/11/27 13:40:36;;;;;;;7.60;7.00;;;10.10;99.90;;;;;;4994789;28;20785;-62
2022/11/27 13:43:16;;;;;;;8.27;7.60;;;10.10;99.90;;;;;;4995164;28;20445;-62
2022/11/27 13:45:44;;;;;;;6.90;6.40;;;10.10;99.90;;;;;;4995379;28;20793;-62
2022/11/27 13:48:28;;;;;;;8.30;7.50;;;10.10;99.90;;;;;;4997324;28;20532;-63
2022/11/27 13:50:57;;;;;;;9.80;6.80;;;10.10;99.90;;;;;;4998646;28;20480;-62
2022/11/27 13:53:31;;;;;;;7.23;6.63;;;10.00;99.90;;;;;;4998570;28;20477;-63
2022/11/27 13:55:58;;;;;;;7.57;6.83;;;10.00;99.90;;;;;;4999030;28;20448;-63
2022/11/27 13:58:32;;;;;;;7.00;6.50;;;10.10;99.90;;;;;;4998700;28;20454;-63
2022/11/27 14:00:59;;;;;;;7.27;6.57;;;10.20;99.90;;;;;;4998063;28;20489;-63
2022/11/27 14:03:29;;;;;;;6.80;6.30;;;10.20;99.90;;;;;;4998183;28;20524;-63
2022/11/27 14:05:56;;;;;;;7.00;6.40;;;10.20;99.90;;;;;;4998155;28;20461;-63
2022/11/27 14:08:26;;;;;;;7.23;6.63;;;10.20;99.90;;;;;;4998665;28;20849;-63
2022/11/27 14:10:58;;;;;;;7.47;6.80;;;10.20;99.90;;;;;;4997837;28;20473;-63
2022/11/27 14:13:37;;;;;;;6.90;6.40;;;10.20;99.90;;;;;;4997891;28;20461;-63
2022/11/27 14:16:18;;;;;;;8.13;7.33;;;10.20;99.90;;;;;;4997761;28;20975;-63
2022/11/27 14:18:50;;;;;;;7.27;6.67;;;10.20;99.90;;;;;;4997792;28;20500;-63
2022/11/27 14:21:24;;;;;;;8.07;7.30;;;10.20;99.90;;;;;;4997724;28;20481;-63
2022/11/27 14:23:53;;;;;;;8.00;7.30;;;10.10;99.90;;;;;;4997766;28;20438;-64
2022/11/27 14:26:22;;;;;;;7.80;6.97;;;10.10;99.90;;;;;;4997328;28;21043;-64
2022/11/27 14:28:53;;;;;;;9.70;8.77;;;10.00;99.90;;;;;;4997368;28;20856;-64
2022/11/27 14:31:28;;;;;;;7.93;7.23;;;10.00;99.90;;;;;;4997566;28;20543;-63
2022/11/27 14:33:55;;;;;;;8.03;7.33;;;10.00;99.90;;;;;;4997543;28;20516;-64
2022/11/27 14:36:24;;;;;;;8.90;7.97;;;9.90;99.90;;;;;;4997870;28;20933;-64
2022/11/27 14:38:51;;;;;;;9.53;8.73;;;9.90;99.90;;;;;;4997280;28;20457;-64
2022/11/27 14:41:19;;;;;;;9.23;8.33;;;9.80;99.90;;;;;;5001204;28;20820;-63
2022/11/27 14:43:46;;;;;;;9.00;8.20;;;9.80;99.90;;;;;;4997249;28;20885;-64
2022/11/27 14:46:17;;;;;;;9.27;8.47;;;9.70;99.90;;;;;;4997277;28;20460;-64
2022/11/27 14:48:46;;;;;;;9.93;9.07;;;9.60;99.90;;;;;;4997058;28;20473;-64
2022/11/27 14:51:18;;;;;;;10.43;9.57;;;9.60;99.90;;;;;;4996743;28;21006;-64
2022/11/27 14:53:46;;;;;;;10.30;9.40;;;9.50;99.90;;;;;;4997167;28;20472;-64
2022/11/27 14:56:14;;;;;;;9.97;9.03;;;9.50;99.90;;;;;;4996990;28;20828;-64
2022/11/27 14:58:47;;;;;;;9.40;8.50;;;9.50;99.90;;;;;;4996550;28;20453;-64
2022/11/27 15:01:24;;;;;;;8.90;8.07;;;9.40;99.90;;;;;;4996755;28;21124;-64
2022/11/27 15:03:57;;;;;;;9.43;8.53;;;9.40;99.90;;;;;;4997041;28;20461;-65
2022/11/27 15:06:26;;;;;;;14.60;12.73;;;9.30;99.90;;;;;;4996970;28;20454;-64
2022/11/27 15:08:54;;;;;;;12.63;11.03;;;9.20;99.90;;;;;;4996805;28;20461;-64
2022/11/27 15:11:22;;;;;;;10.47;9.50;;;9.20;99.90;;;;;;4996845;28;20482;-64
2022/11/27 15:13:53;;;;;;;9.57;8.67;;;9.20;99.90;;;;;;4996395;28;20485;-64
2022/11/27 15:16:24;;;;;;;9.70;8.80;;;9.20;99.90;;;;;;4996769;28;20442;-64
2022/11/27 15:18:55;;;;;;;8.47;7.67;;;9.10;99.90;;;;;;4996503;28;20549;-64
2022/11/27 15:21:25;;;;;;;12.17;10.97;;;9.10;99.90;;;;;;4996548;28;20547;-64
2022/11/27 15:23:53;;;;;;;14.37;13.07;;;9.10;99.90;;;;;;4996660;28;20489;-64
2022/11/27 15:26:43;;;;;;;13.93;12.60;;;9.00;99.90;;;;;;4996783;28;20504;-64
2022/11/27 15:29:32;;;;;;;9.87;9.00;;;9.00;99.90;;;;;;4990754;28;20624;-64
2022/11/27 15:32:00;;;;;;;9.67;8.87;;;8.90;99.90;;;;;;4996280;28;20993;-64
2022/11/27 15:34:33;;;;;;;9.30;7.60;;;8.90;99.90;;;;;;4996151;28;21043;-64
2022/11/27 15:37:05;;;;;;;8.03;7.43;;;8.80;99.90;;;;;;4996415;28;20438;-64
2022/11/27 15:39:38;;;;;;;6.50;5.47;;;8.70;99.90;;;;;;4996381;28;20442;-64
2022/11/27 15:42:09;;;;;;;5.97;5.47;;;8.70;99.90;;;;;;4996290;28;20480;-64
2022/11/27 15:44:37;;;;;;;6.50;6.00;;;8.60;99.90;;;;;;4996222;28;20441;-64
2022/11/27 15:47:06;;;;;;;5.10;4.70;;;8.60;99.90;;;;;;4996116;28;20477;-64
2022/11/27 15:49:33;;;;;;;4.50;4.10;;;8.60;99.90;;;;;;4996032;28;20509;-64
2022/11/27 15:51:59;;;;;;;5.57;5.17;;;8.60;99.90;;;;;;4995990;28;20480;-64
2022/11/27 15:54:26;;;;;;;4.67;4.23;;;8.50;99.90;;;;;;4995912;28;20484;-64
2022/11/27 15:56:53;;;;;;;4.47;4.17;;;8.50;99.90;;;;;;4996247;28;20446;-64
2022/11/27 15:59:20;;;;;;;4.13;3.80;;;8.50;99.90;;;;;;4995927;28;20449;-64
2022/11/27 16:01:46;;;;;;;4.50;4.20;;;8.50;99.90;;;;;;4995536;28;20572;-64
2022/11/27 16:04:14;;;;;;;5.33;4.40;;;8.50;99.90;;;;;;4996476;28;20453;-64
2022/11/27 16:06:41;;;;;;;4.17;3.87;;;8.40;99.90;;;;;;4995820;28;20457;-64
2022/11/27 16:09:08;;;;;;;5.10;4.67;;;8.40;99.90;;;;;;4995344;28;20453;-64
2022/11/27 16:11:34;;;;;;;4.57;4.17;;;8.40;99.90;;;;;;4995499;28;20480;-64
2022/11/27 16:14:01;;;;;;;4.03;3.73;;;8.40;99.90;;;;;;4995852;28;20861;-64
2022/11/27 16:16:28;;;;;;;4.80;4.10;;;8.40;99.90;;;;;;4995729;28;20461;-64
2022/11/27 16:18:58;;;;;;;4.10;3.63;;;8.40;99.90;;;;;;4995697;28;20490;-65
2022/11/27 16:21:27;;;;;;;4.80;4.40;;;8.40;99.90;;;;;;4995707;28;20473;-64
2022/11/27 16:23:57;;;;;;;4.27;3.97;;;8.40;99.90;;;;;;4995962;28;20453;-64
2022/11/27 16:26:24;;;;;;;5.60;5.10;;;8.30;99.90;;;;;;4995799;28;20481;-64
2022/11/27 16:28:51;;;;;;;5.70;5.20;;;8.30;99.90;;;;;;4996499;28;20454;-64
2022/11/27 16:31:18;;;;;;;5.20;4.80;;;8.30;99.90;;;;;;4995451;28;20477;-64
2022/11/27 16:33:44;;;;;;;5.10;4.70;;;8.30;99.90;;;;;;4995386;28;20473;-65
2022/11/27 16:36:13;;;;;;;4.83;4.30;;;8.20;99.90;;;;;;4995402;28;20454;-65
2022/11/27 16:38:42;;;;;;;6.37;5.00;;;8.20;99.90;;;;;;4994918;28;20457;-64
2022/11/27 16:41:11;;;;;;;5.13;4.70;;;8.20;99.90;;;;;;4994748;28;21047;-64
2022/11/27 16:43:39;;;;;;;5.17;4.77;;;8.10;99.90;;;;;;4995395;28;20864;-64
2022/11/27 16:46:08;;;;;;;5.93;5.43;;;8.00;99.90;;;;;;4995196;28;20460;-64
2022/11/27 16:48:37;;;;;;;5.60;4.77;;;8.00;99.90;;;;;;4995116;28;20866;-64
2022/11/27 16:51:05;;;;;;;5.93;5.43;;;8.00;99.90;;;;;;4995045;28;20531;-64
2022/11/27 16:53:32;;;;;;;5.37;5.00;;;7.90;99.90;;;;;;4994912;28;20461;-64
2022/11/27 16:56:00;;;;;;;5.87;5.47;;;7.90;99.90;;;;;;4995051;28;20458;-64
2022/11/27 16:58:26;;;;;;;6.57;6.07;;;7.90;99.90;;;;;;4995086;28;20503;-67
2022/11/27 17:00:53;;;;;;;6.87;6.30;;;7.80;99.90;;;;;;4994735;28;20485;-67
2022/11/27 17:03:20;;;;;;;6.50;5.93;;;7.80;99.90;;;;;;4994887;28;20545;-67
2022/11/27 17:05:47;;;;;;;6.63;6.13;;;7.80;99.90;;;;;;4994782;28;20508;-67
2022/11/27 17:08:13;;;;;;;6.93;6.27;;;7.70;99.90;;;;;;4994491;28;20840;-69
2022/11/27 17:10:40;;;;;;;7.13;6.43;;;7.60;99.90;;;;;;4994708;28;20500;-68
2022/11/27 17:13:08;;;;;;;7.03;6.40;;;7.60;99.90;;;;;;4994865;28;20458;-67
2022/11/27 17:15:35;;;;;;;7.07;6.40;;;7.50;99.90;;;;;;4994476;28;20813;-67
2022/11/27 17:18:02;;;;;;;7.53;6.80;;;7.50;99.90;;;;;;4994409;28;20461;-66
2022/11/27 17:20:28;;;;;;;7.33;6.70;;;7.40;99.90;;;;;;4994462;28;20512;-65
2022/11/27 17:22:55;;;;;;;6.87;6.13;;;7.40;99.90;;;;;;4994967;28;20493;-65
2022/11/27 17:25:24;;;;;;;7.50;6.50;;;7.30;99.90;;;;;;4994591;28;20460;-65
2022/11/27 17:27:51;;;;;;;8.70;7.90;;;7.30;99.90;;;;;;4994038;28;21028;-65
2022/11/27 17:30:19;;;;;;;8.40;7.70;;;7.20;99.90;;;;;;4994371;28;20458;-65
2022/11/27 17:32:46;;;;;;;7.53;6.93;;;7.20;99.90;;;;;;4996229;28;20458;-66
2022/11/27 17:35:14;;;;;;;8.20;7.60;;;7.20;99.90;;;;;;4997377;28;20988;-65
2022/11/27 17:37:42;;;;;;;8.80;8.10;;;7.10;99.90;;;;;;4994817;28;20508;-65
2022/11/27 17:40:09;;;;;;;7.97;7.17;;;7.10;99.90;;;;;;4994468;28;20512;-65
2022/11/27 17:42:36;;;;;;;8.50;7.80;;;7.00;99.90;;;;;;4994256;28;20549;-65
2022/11/27 17:45:03;;;;;;;8.47;7.77;;;7.00;99.90;;;;;;4994776;28;20528;-65
2022/11/27 17:47:32;;;;;;;7.33;6.73;;;6.90;99.90;;;;;;4994318;28;20460;-65
2022/11/27 17:49:59;;;;;;;8.67;7.97;;;6.90;99.90;;;;;;4994204;28;20454;-65
2022/11/27 17:52:26;;;;;;;9.10;8.30;;;6.80;99.90;;;;;;4993834;28;21043;-65
2022/11/27 17:54:52;;;;;;;9.60;8.80;;;6.70;99.90;;;;;;4994369;28;21019;-65
2022/11/27 17:57:19;;;;;;;9.10;8.30;;;6.60;99.90;;;;;;4993867;28;20462;-65
2022/11/27 17:59:46;;;;;;;9.57;8.67;;;6.60;99.90;;;;;;4994176;28;20458;-69
2022/11/27 18:02:12;;;;;;;10.00;9.10;;;6.50;99.90;;;;;;4993735;28;20489;-66